sensor_id;sensor_type;location;lat;lon;timestamp;P1;durP1;ratioP1;P2;durP2;ratioP2
18168;SDS011;49877;50.398;30.324;2022-09-13T00:00:27;14.43;;;8.67;;
18168;SDS011;49877;50.398;30.324;2022-09-13T00:02:54;16.40;;;8.93;;
18168;SDS011;49877;50.398;30.324;2022-09-13T00:05:20;14.83;;;8.80;;
18168;SDS011;49877;50.398;30.324;2022-09-13T00:07:47;10.47;;;7.73;;
18168;SDS011;49877;50.398;30.324;2022-09-13T00:10:16;13.57;;;9.27;;
18168;SDS011;49877;50.398;30.324;2022-09-13T00:12:43;16.83;;;9.47;;
18168;SDS011;49877;50.398;30.324;2022-09-13T00:15:10;27.40;;;11.07;;
18168;SDS011;49877;50.398;30.324;2022-09-13T00:17:37;14.67;;;10.10;;
18168;SDS011;49877;50.398;30.324;2022-09-13T00:20:04;22.27;;;10.67;;
18168;SDS011;49877;50.398;30.324;2022-09-13T00:22:31;14.33;;;9.23;;
18168;SDS011;49877;50.398;30.324;2022-09-13T00:24:58;13.90;;;9.77;;
18168;SDS011;49877;50.398;30.324;2022-09-13T00:27:26;16.47;;;10.27;;
18168;SDS011;49877;50.398;30.324;2022-09-13T00:29:53;21.67;;;10.80;;
18168;SDS011;49877;50.398;30.324;2022-09-13T00:32:20;19.27;;;10.60;;
18168;SDS011;49877;50.398;30.324;2022-09-13T00:34:47;17.03;;;9.80;;
18168;SDS011;49877;50.398;30.324;2022-09-13T00:37:13;27.27;;;11.30;;
18168;SDS011;49877;50.398;30.324;2022-09-13T00:39:40;20.33;;;10.87;;
18168;SDS011;49877;50.398;30.324;2022-09-13T00:42:08;19.43;;;10.47;;
18168;SDS011;49877;50.398;30.324;2022-09-13T00:47:28;20.30;;;11.47;;
18168;SDS011;49877;50.398;30.324;2022-09-13T00:50:04;28.47;;;11.50;;
18168;SDS011;49877;50.398;30.324;2022-09-13T00:52:34;24.53;;;12.63;;
18168;SDS011;49877;50.398;30.324;2022-09-13T00:55:05;31.77;;;13.57;;
18168;SDS011;49877;50.398;30.324;2022-09-13T00:57:37;20.63;;;12.37;;
18168;SDS011;49877;50.398;30.324;2022-09-13T01:00:09;22.53;;;12.37;;
18168;SDS011;49877;50.398;30.324;2022-09-13T01:02:39;36.30;;;12.93;;
18168;SDS011;49877;50.398;30.324;2022-09-13T01:05:10;30.40;;;13.20;;
18168;SDS011;49877;50.398;30.324;2022-09-13T01:07:39;44.53;;;13.80;;
18168;SDS011;49877;50.398;30.324;2022-09-13T01:10:07;30.83;;;12.97;;
18168;SDS011;49877;50.398;30.324;2022-09-13T01:12:36;18.50;;;11.60;;
18168;SDS011;49877;50.398;30.324;2022-09-13T01:15:09;18.70;;;10.63;;
18168;SDS011;49877;50.398;30.324;2022-09-13T01:17:36;25.93;;;10.93;;
18168;SDS011;49877;50.398;30.324;2022-09-13T01:20:05;31.50;;;10.67;;
18168;SDS011;49877;50.398;30.324;2022-09-13T01:25:49;28.77;;;10.97;;
18168;SDS011;49877;50.398;30.324;2022-09-13T01:28:39;18.80;;;10.20;;
18168;SDS011;49877;50.398;30.324;2022-09-13T01:31:36;48.77;;;11.90;;
18168;SDS011;49877;50.398;30.324;2022-09-13T01:34:10;41.90;;;11.20;;
18168;SDS011;49877;50.398;30.324;2022-09-13T01:36:51;21.23;;;10.13;;
18168;SDS011;49877;50.398;30.324;2022-09-13T01:39:29;45.33;;;12.03;;
18168;SDS011;49877;50.398;30.324;2022-09-13T01:42:07;38.13;;;12.13;;
18168;SDS011;49877;50.398;30.324;2022-09-13T01:47:30;17.07;;;10.60;;
18168;SDS011;49877;50.398;30.324;2022-09-13T01:50:08;26.13;;;11.40;;
18168;SDS011;49877;50.398;30.324;2022-09-13T01:52:44;29.43;;;10.90;;
18168;SDS011;49877;50.398;30.324;2022-09-13T01:55:20;21.33;;;10.37;;
18168;SDS011;49877;50.398;30.324;2022-09-13T01:57:53;34.13;;;10.30;;
18168;SDS011;49877;50.398;30.324;2022-09-13T02:00:29;25.57;;;11.13;;
18168;SDS011;49877;50.398;30.324;2022-09-13T02:03:04;29.40;;;11.23;;
18168;SDS011;49877;50.398;30.324;2022-09-13T02:05:36;22.63;;;11.03;;
18168;SDS011;49877;50.398;30.324;2022-09-13T02:08:07;25.07;;;11.40;;
18168;SDS011;49877;50.398;30.324;2022-09-13T02:10:37;21.57;;;10.50;;
18168;SDS011;49877;50.398;30.324;2022-09-13T02:13:09;22.27;;;11.67;;
18168;SDS011;49877;50.398;30.324;2022-09-13T02:15:38;13.73;;;9.73;;
18168;SDS011;49877;50.398;30.324;2022-09-13T02:18:11;18.03;;;10.00;;
18168;SDS011;49877;50.398;30.324;2022-09-13T02:20:43;15.93;;;9.37;;
18168;SDS011;49877;50.398;30.324;2022-09-13T02:23:13;13.17;;;8.37;;
18168;SDS011;49877;50.398;30.324;2022-09-13T02:25:43;12.53;;;7.97;;
18168;SDS011;49877;50.398;30.324;2022-09-13T02:28:20;10.37;;;7.70;;
18168;SDS011;49877;50.398;30.324;2022-09-13T02:30:51;11.93;;;7.57;;
18168;SDS011;49877;50.398;30.324;2022-09-13T02:33:22;10.87;;;8.33;;
18168;SDS011;49877;50.398;30.324;2022-09-13T02:35:54;12.47;;;7.63;;
18168;SDS011;49877;50.398;30.324;2022-09-13T02:38:26;11.00;;;8.47;;
18168;SDS011;49877;50.398;30.324;2022-09-13T02:40:58;12.87;;;8.73;;
18168;SDS011;49877;50.398;30.324;2022-09-13T02:43:33;13.20;;;8.63;;
18168;SDS011;49877;50.398;30.324;2022-09-13T02:46:15;9.77;;;8.37;;
18168;SDS011;49877;50.398;30.324;2022-09-13T02:48:55;15.63;;;10.07;;
18168;SDS011;49877;50.398;30.324;2022-09-13T02:51:29;12.93;;;9.60;;
18168;SDS011;49877;50.398;30.324;2022-09-13T02:54:04;11.70;;;9.13;;
18168;SDS011;49877;50.398;30.324;2022-09-13T02:56:39;11.43;;;9.73;;
18168;SDS011;49877;50.398;30.324;2022-09-13T02:59:14;10.43;;;8.57;;
18168;SDS011;49877;50.398;30.324;2022-09-13T03:01:43;11.10;;;8.13;;
18168;SDS011;49877;50.398;30.324;2022-09-13T03:04:15;10.93;;;8.13;;
18168;SDS011;49877;50.398;30.324;2022-09-13T03:06:42;9.70;;;7.80;;
18168;SDS011;49877;50.398;30.324;2022-09-13T03:09:09;9.90;;;7.67;;
18168;SDS011;49877;50.398;30.324;2022-09-13T03:11:40;11.50;;;7.37;;
18168;SDS011;49877;50.398;30.324;2022-09-13T03:14:26;9.90;;;7.40;;
18168;SDS011;49877;50.398;30.324;2022-09-13T03:17:07;10.23;;;7.33;;
18168;SDS011;49877;50.398;30.324;2022-09-13T03:19:47;9.27;;;7.60;;
18168;SDS011;49877;50.398;30.324;2022-09-13T03:25:37;9.53;;;7.50;;
18168;SDS011;49877;50.398;30.324;2022-09-13T03:28:17;10.90;;;7.23;;
18168;SDS011;49877;50.398;30.324;2022-09-13T03:30:50;9.83;;;7.20;;
18168;SDS011;49877;50.398;30.324;2022-09-13T03:33:25;9.93;;;8.00;;
18168;SDS011;49877;50.398;30.324;2022-09-13T03:35:59;11.50;;;8.40;;
18168;SDS011;49877;50.398;30.324;2022-09-13T03:38:33;11.53;;;7.50;;
18168;SDS011;49877;50.398;30.324;2022-09-13T03:41:04;9.87;;;7.70;;
18168;SDS011;49877;50.398;30.324;2022-09-13T03:43:35;10.30;;;7.87;;
18168;SDS011;49877;50.398;30.324;2022-09-13T03:46:05;12.03;;;8.10;;
18168;SDS011;49877;50.398;30.324;2022-09-13T03:48:35;11.80;;;8.13;;
18168;SDS011;49877;50.398;30.324;2022-09-13T03:51:06;10.53;;;8.47;;
18168;SDS011;49877;50.398;30.324;2022-09-13T03:53:34;11.50;;;8.60;;
18168;SDS011;49877;50.398;30.324;2022-09-13T03:56:10;11.97;;;8.90;;
18168;SDS011;49877;50.398;30.324;2022-09-13T03:58:38;10.67;;;8.60;;
18168;SDS011;49877;50.398;30.324;2022-09-13T04:01:05;13.33;;;9.60;;
18168;SDS011;49877;50.398;30.324;2022-09-13T04:03:32;12.97;;;10.20;;
18168;SDS011;49877;50.398;30.324;2022-09-13T04:05:58;12.97;;;10.17;;
18168;SDS011;49877;50.398;30.324;2022-09-13T04:08:27;12.27;;;9.80;;
18168;SDS011;49877;50.398;30.324;2022-09-13T04:10:54;14.23;;;9.93;;
18168;SDS011;49877;50.398;30.324;2022-09-13T04:13:20;12.97;;;9.73;;
18168;SDS011;49877;50.398;30.324;2022-09-13T04:15:47;14.90;;;10.30;;
18168;SDS011;49877;50.398;30.324;2022-09-13T04:18:14;12.70;;;10.23;;
18168;SDS011;49877;50.398;30.324;2022-09-13T04:20:41;12.57;;;9.63;;
18168;SDS011;49877;50.398;30.324;2022-09-13T04:23:08;14.57;;;10.33;;
18168;SDS011;49877;50.398;30.324;2022-09-13T04:25:38;18.40;;;11.50;;
18168;SDS011;49877;50.398;30.324;2022-09-13T04:28:05;14.23;;;11.53;;
18168;SDS011;49877;50.398;30.324;2022-09-13T04:30:33;15.40;;;11.93;;
18168;SDS011;49877;50.398;30.324;2022-09-13T04:33:00;12.80;;;11.33;;
18168;SDS011;49877;50.398;30.324;2022-09-13T04:35:27;14.50;;;10.80;;
18168;SDS011;49877;50.398;30.324;2022-09-13T04:37:54;15.37;;;11.13;;
18168;SDS011;49877;50.398;30.324;2022-09-13T04:40:21;15.37;;;12.07;;
18168;SDS011;49877;50.398;30.324;2022-09-13T04:42:50;16.90;;;12.97;;
18168;SDS011;49877;50.398;30.324;2022-09-13T04:45:17;20.07;;;12.87;;
18168;SDS011;49877;50.398;30.324;2022-09-13T04:47:43;19.87;;;13.80;;
18168;SDS011;49877;50.398;30.324;2022-09-13T04:50:16;16.77;;;12.90;;
18168;SDS011;49877;50.398;30.324;2022-09-13T04:52:44;18.50;;;13.10;;
18168;SDS011;49877;50.398;30.324;2022-09-13T04:55:11;23.10;;;14.47;;
18168;SDS011;49877;50.398;30.324;2022-09-13T04:57:38;17.47;;;13.50;;
18168;SDS011;49877;50.398;30.324;2022-09-13T05:00:07;15.27;;;12.43;;
18168;SDS011;49877;50.398;30.324;2022-09-13T05:02:35;22.43;;;13.43;;
18168;SDS011;49877;50.398;30.324;2022-09-13T05:05:02;22.33;;;14.43;;
18168;SDS011;49877;50.398;30.324;2022-09-13T05:07:29;19.20;;;13.33;;
18168;SDS011;49877;50.398;30.324;2022-09-13T05:09:56;28.37;;;15.80;;
18168;SDS011;49877;50.398;30.324;2022-09-13T05:12:23;21.90;;;14.43;;
18168;SDS011;49877;50.398;30.324;2022-09-13T05:14:50;24.70;;;13.80;;
18168;SDS011;49877;50.398;30.324;2022-09-13T05:17:18;16.67;;;12.43;;
18168;SDS011;49877;50.398;30.324;2022-09-13T05:19:45;18.23;;;12.57;;
18168;SDS011;49877;50.398;30.324;2022-09-13T05:22:13;18.87;;;13.47;;
18168;SDS011;49877;50.398;30.324;2022-09-13T05:24:40;23.67;;;13.57;;
18168;SDS011;49877;50.398;30.324;2022-09-13T05:27:07;24.57;;;13.90;;
18168;SDS011;49877;50.398;30.324;2022-09-13T05:29:35;23.23;;;14.03;;
18168;SDS011;49877;50.398;30.324;2022-09-13T05:32:02;22.53;;;14.27;;
18168;SDS011;49877;50.398;30.324;2022-09-13T05:34:30;21.40;;;13.73;;
18168;SDS011;49877;50.398;30.324;2022-09-13T05:36:57;21.07;;;13.73;;
18168;SDS011;49877;50.398;30.324;2022-09-13T05:39:24;18.00;;;13.43;;
18168;SDS011;49877;50.398;30.324;2022-09-13T05:41:50;22.17;;;13.83;;
18168;SDS011;49877;50.398;30.324;2022-09-13T05:44:17;19.53;;;13.10;;
18168;SDS011;49877;50.398;30.324;2022-09-13T05:46:45;19.00;;;12.60;;
18168;SDS011;49877;50.398;30.324;2022-09-13T05:49:12;21.87;;;13.90;;
18168;SDS011;49877;50.398;30.324;2022-09-13T05:51:41;19.13;;;13.17;;
18168;SDS011;49877;50.398;30.324;2022-09-13T05:54:09;18.10;;;12.60;;
18168;SDS011;49877;50.398;30.324;2022-09-13T05:56:37;17.57;;;12.37;;
18168;SDS011;49877;50.398;30.324;2022-09-13T05:59:04;14.37;;;11.30;;
18168;SDS011;49877;50.398;30.324;2022-09-13T06:01:32;26.17;;;13.93;;
18168;SDS011;49877;50.398;30.324;2022-09-13T06:04:00;19.43;;;12.33;;
18168;SDS011;49877;50.398;30.324;2022-09-13T06:06:27;19.80;;;12.40;;
18168;SDS011;49877;50.398;30.324;2022-09-13T06:08:55;22.97;;;13.80;;
18168;SDS011;49877;50.398;30.324;2022-09-13T06:11:23;19.73;;;13.47;;
18168;SDS011;49877;50.398;30.324;2022-09-13T06:13:51;21.47;;;13.37;;
18168;SDS011;49877;50.398;30.324;2022-09-13T06:16:18;19.33;;;12.90;;
18168;SDS011;49877;50.398;30.324;2022-09-13T06:18:45;23.63;;;14.83;;
18168;SDS011;49877;50.398;30.324;2022-09-13T06:21:14;23.37;;;14.50;;
18168;SDS011;49877;50.398;30.324;2022-09-13T06:23:42;22.20;;;14.50;;
18168;SDS011;49877;50.398;30.324;2022-09-13T06:26:11;19.87;;;13.17;;
18168;SDS011;49877;50.398;30.324;2022-09-13T06:28:39;21.40;;;14.10;;
18168;SDS011;49877;50.398;30.324;2022-09-13T06:31:07;17.73;;;13.37;;
18168;SDS011;49877;50.398;30.324;2022-09-13T06:33:36;18.20;;;12.87;;
18168;SDS011;49877;50.398;30.324;2022-09-13T06:36:05;19.10;;;12.57;;
18168;SDS011;49877;50.398;30.324;2022-09-13T06:38:33;18.83;;;13.90;;
18168;SDS011;49877;50.398;30.324;2022-09-13T06:41:01;22.03;;;14.63;;
18168;SDS011;49877;50.398;30.324;2022-09-13T06:43:31;25.57;;;16.20;;
18168;SDS011;49877;50.398;30.324;2022-09-13T06:45:59;21.97;;;14.80;;
18168;SDS011;49877;50.398;30.324;2022-09-13T06:48:29;22.30;;;14.40;;
18168;SDS011;49877;50.398;30.324;2022-09-13T06:50:57;24.80;;;15.07;;
18168;SDS011;49877;50.398;30.324;2022-09-13T06:53:25;21.67;;;14.90;;
18168;SDS011;49877;50.398;30.324;2022-09-13T06:55:59;26.60;;;17.50;;
18168;SDS011;49877;50.398;30.324;2022-09-13T06:58:28;26.70;;;16.50;;
18168;SDS011;49877;50.398;30.324;2022-09-13T07:01:05;25.77;;;16.07;;
18168;SDS011;49877;50.398;30.324;2022-09-13T07:03:36;20.77;;;14.30;;
18168;SDS011;49877;50.398;30.324;2022-09-13T07:06:07;23.47;;;14.63;;
18168;SDS011;49877;50.398;30.324;2022-09-13T07:11:03;22.47;;;15.03;;
18168;SDS011;49877;50.398;30.324;2022-09-13T07:13:30;25.23;;;15.93;;
18168;SDS011;49877;50.398;30.324;2022-09-13T07:15:59;23.00;;;15.13;;
18168;SDS011;49877;50.398;30.324;2022-09-13T07:18:28;25.53;;;16.70;;
18168;SDS011;49877;50.398;30.324;2022-09-13T07:20:57;23.90;;;15.63;;
18168;SDS011;49877;50.398;30.324;2022-09-13T07:23:26;25.10;;;16.10;;
18168;SDS011;49877;50.398;30.324;2022-09-13T07:25:53;25.20;;;16.27;;
18168;SDS011;49877;50.398;30.324;2022-09-13T07:28:25;19.87;;;14.10;;
18168;SDS011;49877;50.398;30.324;2022-09-13T07:30:53;18.67;;;14.03;;
18168;SDS011;49877;50.398;30.324;2022-09-13T07:33:22;20.97;;;13.43;;
18168;SDS011;49877;50.398;30.324;2022-09-13T07:35:54;19.37;;;13.43;;
18168;SDS011;49877;50.398;30.324;2022-09-13T07:38:22;17.23;;;13.53;;
18168;SDS011;49877;50.398;30.324;2022-09-13T07:40:52;15.93;;;12.40;;
18168;SDS011;49877;50.398;30.324;2022-09-13T07:43:22;17.27;;;12.77;;
18168;SDS011;49877;50.398;30.324;2022-09-13T07:45:54;19.93;;;12.87;;
18168;SDS011;49877;50.398;30.324;2022-09-13T07:48:23;18.73;;;14.33;;
18168;SDS011;49877;50.398;30.324;2022-09-13T07:50:59;16.17;;;12.33;;
18168;SDS011;49877;50.398;30.324;2022-09-13T07:53:27;18.47;;;13.40;;
18168;SDS011;49877;50.398;30.324;2022-09-13T07:55:58;19.00;;;13.60;;
18168;SDS011;49877;50.398;30.324;2022-09-13T07:58:26;18.03;;;13.27;;
18168;SDS011;49877;50.398;30.324;2022-09-13T08:00:53;20.63;;;13.13;;
18168;SDS011;49877;50.398;30.324;2022-09-13T08:03:20;17.53;;;13.10;;
18168;SDS011;49877;50.398;30.324;2022-09-13T08:05:46;18.27;;;13.03;;
18168;SDS011;49877;50.398;30.324;2022-09-13T08:08:15;17.07;;;13.03;;
18168;SDS011;49877;50.398;30.324;2022-09-13T08:10:44;20.60;;;14.07;;
18168;SDS011;49877;50.398;30.324;2022-09-13T08:13:10;16.83;;;12.30;;
18168;SDS011;49877;50.398;30.324;2022-09-13T08:15:37;19.27;;;13.47;;
18168;SDS011;49877;50.398;30.324;2022-09-13T08:18:04;20.27;;;12.73;;
18168;SDS011;49877;50.398;30.324;2022-09-13T08:20:34;16.93;;;12.90;;
18168;SDS011;49877;50.398;30.324;2022-09-13T08:23:02;21.80;;;14.57;;
18168;SDS011;49877;50.398;30.324;2022-09-13T08:25:32;19.43;;;14.30;;
18168;SDS011;49877;50.398;30.324;2022-09-13T08:27:59;20.20;;;13.70;;
18168;SDS011;49877;50.398;30.324;2022-09-13T08:30:26;20.90;;;14.07;;
18168;SDS011;49877;50.398;30.324;2022-09-13T08:32:57;22.67;;;14.00;;
18168;SDS011;49877;50.398;30.324;2022-09-13T08:35:25;20.80;;;14.67;;
18168;SDS011;49877;50.398;30.324;2022-09-13T08:37:52;20.70;;;14.03;;
18168;SDS011;49877;50.398;30.324;2022-09-13T08:40:19;19.60;;;14.37;;
18168;SDS011;49877;50.398;30.324;2022-09-13T08:42:50;20.63;;;14.70;;
18168;SDS011;49877;50.398;30.324;2022-09-13T08:45:21;20.70;;;13.73;;
18168;SDS011;49877;50.398;30.324;2022-09-13T08:47:49;19.83;;;13.50;;
18168;SDS011;49877;50.398;30.324;2022-09-13T08:50:22;16.70;;;12.73;;
18168;SDS011;49877;50.398;30.324;2022-09-13T08:53:01;17.27;;;13.30;;
18168;SDS011;49877;50.398;30.324;2022-09-13T08:55:43;18.50;;;13.70;;
18168;SDS011;49877;50.398;30.324;2022-09-13T08:58:29;22.77;;;14.03;;
18168;SDS011;49877;50.398;30.324;2022-09-13T09:01:06;22.97;;;14.93;;
18168;SDS011;49877;50.398;30.324;2022-09-13T09:03:40;27.40;;;15.60;;
18168;SDS011;49877;50.398;30.324;2022-09-13T09:06:11;19.03;;;12.80;;
18168;SDS011;49877;50.398;30.324;2022-09-13T09:08:41;19.23;;;12.40;;
18168;SDS011;49877;50.398;30.324;2022-09-13T09:11:13;19.83;;;13.53;;
18168;SDS011;49877;50.398;30.324;2022-09-13T09:13:54;22.47;;;13.67;;
18168;SDS011;49877;50.398;30.324;2022-09-13T09:16:28;17.23;;;12.20;;
18168;SDS011;49877;50.398;30.324;2022-09-13T09:19:01;20.23;;;13.27;;
18168;SDS011;49877;50.398;30.324;2022-09-13T09:21:36;14.77;;;11.07;;
18168;SDS011;49877;50.398;30.324;2022-09-13T09:24:03;15.47;;;11.50;;
18168;SDS011;49877;50.398;30.324;2022-09-13T09:26:31;16.97;;;10.83;;
18168;SDS011;49877;50.398;30.324;2022-09-13T09:29:00;16.97;;;11.33;;
18168;SDS011;49877;50.398;30.324;2022-09-13T09:31:37;17.73;;;11.60;;
18168;SDS011;49877;50.398;30.324;2022-09-13T09:34:11;18.23;;;11.73;;
18168;SDS011;49877;50.398;30.324;2022-09-13T09:36:44;17.53;;;12.47;;
18168;SDS011;49877;50.398;30.324;2022-09-13T09:39:17;16.37;;;11.90;;
18168;SDS011;49877;50.398;30.324;2022-09-13T09:41:44;16.57;;;12.00;;
18168;SDS011;49877;50.398;30.324;2022-09-13T09:44:18;15.93;;;11.90;;
18168;SDS011;49877;50.398;30.324;2022-09-13T09:46:47;18.77;;;12.83;;
18168;SDS011;49877;50.398;30.324;2022-09-13T09:49:18;17.03;;;11.87;;
18168;SDS011;49877;50.398;30.324;2022-09-13T09:52:08;19.37;;;12.73;;
18168;SDS011;49877;50.398;30.324;2022-09-13T09:54:37;19.03;;;12.83;;
18168;SDS011;49877;50.398;30.324;2022-09-13T09:57:05;17.43;;;12.13;;
18168;SDS011;49877;50.398;30.324;2022-09-13T09:59:34;19.00;;;12.23;;
18168;SDS011;49877;50.398;30.324;2022-09-13T10:02:10;17.90;;;12.00;;
18168;SDS011;49877;50.398;30.324;2022-09-13T10:04:40;18.83;;;11.60;;
18168;SDS011;49877;50.398;30.324;2022-09-13T10:07:08;14.63;;;10.60;;
18168;SDS011;49877;50.398;30.324;2022-09-13T10:09:51;16.07;;;11.10;;
18168;SDS011;49877;50.398;30.324;2022-09-13T13:12:43;11.90;;;7.30;;
18168;SDS011;49877;50.398;30.324;2022-09-13T13:18:20;11.47;;;7.20;;
18168;SDS011;49877;50.398;30.324;2022-09-13T13:21:03;13.23;;;8.20;;
18168;SDS011;49877;50.398;30.324;2022-09-13T13:27:01;15.43;;;8.57;;
18168;SDS011;49877;50.398;30.324;2022-09-13T13:33:12;12.33;;;8.17;;
18168;SDS011;49877;50.398;30.324;2022-09-13T13:35:41;12.33;;;8.90;;
18168;SDS011;49877;50.398;30.324;2022-09-13T13:38:15;14.23;;;9.00;;
18168;SDS011;49877;50.398;30.324;2022-09-13T13:41:04;12.67;;;8.23;;
18168;SDS011;49877;50.398;30.324;2022-09-13T13:43:51;13.83;;;8.97;;
18168;SDS011;49877;50.398;30.324;2022-09-13T13:55:02;15.53;;;10.10;;
18168;SDS011;49877;50.398;30.324;2022-09-13T13:57:50;14.00;;;9.83;;
18168;SDS011;49877;50.398;30.324;2022-09-13T14:00:25;12.00;;;8.17;;
18168;SDS011;49877;50.398;30.324;2022-09-13T14:03:02;13.53;;;8.97;;
18168;SDS011;49877;50.398;30.324;2022-09-13T14:05:37;12.80;;;8.33;;
18168;SDS011;49877;50.398;30.324;2022-09-13T14:10:58;11.97;;;7.77;;
18168;SDS011;49877;50.398;30.324;2022-09-13T14:13:40;11.13;;;7.17;;
18168;SDS011;49877;50.398;30.324;2022-09-13T14:16:20;9.33;;;7.07;;
18168;SDS011;49877;50.398;30.324;2022-09-13T14:19:06;10.40;;;7.97;;
18168;SDS011;49877;50.398;30.324;2022-09-13T14:21:43;19.77;;;13.50;;
18168;SDS011;49877;50.398;30.324;2022-09-13T18:05:20;13.47;;;8.80;;
18168;SDS011;49877;50.398;30.324;2022-09-13T18:07:47;13.23;;;8.10;;
18168;SDS011;49877;50.398;30.324;2022-09-13T18:10:14;10.43;;;8.13;;
18168;SDS011;49877;50.398;30.324;2022-09-13T18:12:41;11.33;;;7.47;;
18168;SDS011;49877;50.398;30.324;2022-09-13T18:15:08;9.40;;;7.70;;
18168;SDS011;49877;50.398;30.324;2022-09-13T18:17:35;10.93;;;7.63;;
18168;SDS011;49877;50.398;30.324;2022-09-13T18:20:02;12.10;;;7.77;;
18168;SDS011;49877;50.398;30.324;2022-09-13T18:22:31;9.20;;;7.20;;
18168;SDS011;49877;50.398;30.324;2022-09-13T18:24:58;9.87;;;7.20;;
18168;SDS011;49877;50.398;30.324;2022-09-13T18:27:25;12.00;;;7.63;;
18168;SDS011;49877;50.398;30.324;2022-09-13T18:29:51;11.90;;;8.03;;
18168;SDS011;49877;50.398;30.324;2022-09-13T18:32:18;10.13;;;7.40;;
18168;SDS011;49877;50.398;30.324;2022-09-13T18:34:45;12.37;;;7.60;;
18168;SDS011;49877;50.398;30.324;2022-09-13T18:37:12;9.97;;;7.53;;
18168;SDS011;49877;50.398;30.324;2022-09-13T18:39:40;14.23;;;10.47;;
18168;SDS011;49877;50.398;30.324;2022-09-13T18:42:07;12.10;;;8.00;;
18168;SDS011;49877;50.398;30.324;2022-09-13T18:44:34;12.33;;;7.80;;
18168;SDS011;49877;50.398;30.324;2022-09-13T18:47:01;9.83;;;8.00;;
18168;SDS011;49877;50.398;30.324;2022-09-13T18:49:29;11.73;;;7.63;;
18168;SDS011;49877;50.398;30.324;2022-09-13T18:51:56;10.37;;;8.17;;
18168;SDS011;49877;50.398;30.324;2022-09-13T18:54:23;10.67;;;8.23;;
18168;SDS011;49877;50.398;30.324;2022-09-13T18:56:51;9.40;;;7.27;;
18168;SDS011;49877;50.398;30.324;2022-09-13T18:59:19;11.20;;;8.30;;
18168;SDS011;49877;50.398;30.324;2022-09-13T19:01:46;9.40;;;8.00;;
18168;SDS011;49877;50.398;30.324;2022-09-13T19:04:14;9.80;;;8.23;;
18168;SDS011;49877;50.398;30.324;2022-09-13T19:06:42;15.80;;;9.33;;
18168;SDS011;49877;50.398;30.324;2022-09-13T19:09:10;13.97;;;8.97;;
18168;SDS011;49877;50.398;30.324;2022-09-13T19:11:38;11.70;;;9.57;;
18168;SDS011;49877;50.398;30.324;2022-09-13T19:14:08;13.93;;;9.17;;
18168;SDS011;49877;50.398;30.324;2022-09-13T19:16:36;17.27;;;10.97;;
18168;SDS011;49877;50.398;30.324;2022-09-13T19:19:03;18.53;;;13.70;;
18168;SDS011;49877;50.398;30.324;2022-09-13T19:21:30;16.60;;;9.67;;
18168;SDS011;49877;50.398;30.324;2022-09-13T19:23:58;12.57;;;9.40;;
18168;SDS011;49877;50.398;30.324;2022-09-13T19:26:26;11.63;;;9.30;;
18168;SDS011;49877;50.398;30.324;2022-09-13T19:28:55;10.93;;;8.83;;
18168;SDS011;49877;50.398;30.324;2022-09-13T19:31:29;13.97;;;10.50;;
18168;SDS011;49877;50.398;30.324;2022-09-13T19:33:57;15.97;;;10.30;;
18168;SDS011;49877;50.398;30.324;2022-09-13T19:36:26;12.73;;;9.87;;
18168;SDS011;49877;50.398;30.324;2022-09-13T19:38:54;12.90;;;9.50;;
18168;SDS011;49877;50.398;30.324;2022-09-13T19:41:23;14.47;;;10.63;;
18168;SDS011;49877;50.398;30.324;2022-09-13T19:43:51;13.70;;;10.10;;
18168;SDS011;49877;50.398;30.324;2022-09-13T19:46:20;15.40;;;10.43;;
18168;SDS011;49877;50.398;30.324;2022-09-13T19:48:52;14.50;;;10.70;;
18168;SDS011;49877;50.398;30.324;2022-09-13T19:51:22;16.57;;;10.90;;
18168;SDS011;49877;50.398;30.324;2022-09-13T19:53:51;17.07;;;10.70;;
18168;SDS011;49877;50.398;30.324;2022-09-13T19:56:20;15.83;;;10.57;;
18168;SDS011;49877;50.398;30.324;2022-09-13T19:58:48;15.50;;;10.90;;
18168;SDS011;49877;50.398;30.324;2022-09-13T20:01:16;13.60;;;10.20;;
18168;SDS011;49877;50.398;30.324;2022-09-13T20:03:48;13.03;;;9.73;;
18168;SDS011;49877;50.398;30.324;2022-09-13T20:06:17;10.87;;;9.33;;
18168;SDS011;49877;50.398;30.324;2022-09-13T20:08:44;13.90;;;9.80;;
18168;SDS011;49877;50.398;30.324;2022-09-13T20:11:12;13.13;;;9.70;;
18168;SDS011;49877;50.398;30.324;2022-09-13T20:13:40;12.93;;;9.77;;
18168;SDS011;49877;50.398;30.324;2022-09-13T20:16:08;18.40;;;10.50;;
18168;SDS011;49877;50.398;30.324;2022-09-13T20:18:36;14.00;;;9.93;;
18168;SDS011;49877;50.398;30.324;2022-09-13T20:21:04;14.43;;;9.53;;
18168;SDS011;49877;50.398;30.324;2022-09-13T20:23:33;15.50;;;10.37;;
18168;SDS011;49877;50.398;30.324;2022-09-13T20:26:01;15.80;;;10.30;;
18168;SDS011;49877;50.398;30.324;2022-09-13T20:28:29;11.97;;;9.80;;
18168;SDS011;49877;50.398;30.324;2022-09-13T20:30:57;11.77;;;9.50;;
18168;SDS011;49877;50.398;30.324;2022-09-13T20:33:26;13.83;;;9.47;;
18168;SDS011;49877;50.398;30.324;2022-09-13T20:35:53;10.73;;;8.80;;
18168;SDS011;49877;50.398;30.324;2022-09-13T20:38:20;13.10;;;9.03;;
18168;SDS011;49877;50.398;30.324;2022-09-13T20:40:48;12.60;;;8.83;;
18168;SDS011;49877;50.398;30.324;2022-09-13T20:43:15;12.90;;;8.73;;
18168;SDS011;49877;50.398;30.324;2022-09-13T20:45:41;15.03;;;9.43;;
18168;SDS011;49877;50.398;30.324;2022-09-13T20:48:08;15.53;;;9.63;;
18168;SDS011;49877;50.398;30.324;2022-09-13T20:50:36;15.67;;;9.77;;
18168;SDS011;49877;50.398;30.324;2022-09-13T20:53:03;13.70;;;9.77;;
18168;SDS011;49877;50.398;30.324;2022-09-13T20:55:31;12.73;;;9.60;;
18168;SDS011;49877;50.398;30.324;2022-09-13T20:58:00;14.73;;;9.97;;
18168;SDS011;49877;50.398;30.324;2022-09-13T21:00:27;11.50;;;9.30;;
18168;SDS011;49877;50.398;30.324;2022-09-13T21:02:54;14.17;;;9.27;;
18168;SDS011;49877;50.398;30.324;2022-09-13T21:05:21;13.40;;;9.70;;
18168;SDS011;49877;50.398;30.324;2022-09-13T21:07:48;12.57;;;9.07;;
18168;SDS011;49877;50.398;30.324;2022-09-13T21:10:32;15.30;;;9.83;;
18168;SDS011;49877;50.398;30.324;2022-09-13T21:13:00;12.70;;;9.50;;
18168;SDS011;49877;50.398;30.324;2022-09-13T21:15:27;15.40;;;10.13;;
18168;SDS011;49877;50.398;30.324;2022-09-13T21:17:55;13.73;;;10.43;;
18168;SDS011;49877;50.398;30.324;2022-09-13T21:20:22;14.73;;;10.37;;
18168;SDS011;49877;50.398;30.324;2022-09-13T21:22:49;15.33;;;9.93;;
18168;SDS011;49877;50.398;30.324;2022-09-13T21:25:18;15.17;;;10.30;;
18168;SDS011;49877;50.398;30.324;2022-09-13T21:27:44;15.03;;;10.30;;
18168;SDS011;49877;50.398;30.324;2022-09-13T21:30:13;16.13;;;9.57;;
18168;SDS011;49877;50.398;30.324;2022-09-13T21:32:40;14.83;;;9.70;;
18168;SDS011;49877;50.398;30.324;2022-09-13T21:35:07;12.63;;;9.20;;
18168;SDS011;49877;50.398;30.324;2022-09-13T21:37:34;13.97;;;9.50;;
18168;SDS011;49877;50.398;30.324;2022-09-13T21:40:01;12.17;;;9.17;;
18168;SDS011;49877;50.398;30.324;2022-09-13T21:42:28;15.23;;;9.57;;
18168;SDS011;49877;50.398;30.324;2022-09-13T21:44:55;18.87;;;8.97;;
18168;SDS011;49877;50.398;30.324;2022-09-13T21:47:24;14.90;;;8.47;;